Time;durP1;ratioP1;P1;durP2;ratioP2;P2;SDS_P1;SDS_P2;PMS_P1;PMS_P2;Temp;Humidity;BMP_temperature;BMP_pressure;BME280_temperature;BME280_humidity;BME280_pressure;Samples;Min_cycle;Max_cycle;Signal;HPM_P1;HPM_P2
2023/03/25 00:01:17;;;;;;;1.48;0.35;;;;;;;17.06;44.86;100129.66;4934928;28;20459;-61
2023/03/25 00:03:49;;;;;;;2.33;0.80;;;;;;;17.08;45.30;100121.38;4918058;28;20036;-61
2023/03/25 00:06:15;;;;;;;2.35;0.57;;;;;;;17.08;44.34;100129.50;4933962;28;20557;-61
2023/03/25 00:08:40;;;;;;;0.75;0.28;;;;;;;17.10;44.49;100143.66;4918047;28;20039;-61
2023/03/25 00:11:07;;;;;;;3.25;0.40;;;;;;;17.07;44.71;100133.22;4918266;29;20039;-61
2023/03/25 00:13:33;;;;;;;1.23;0.63;;;;;;;17.05;43.94;100138.00;4933752;28;20110;-61
2023/03/25 00:15:58;;;;;;;6.13;0.68;;;;;;;17.06;44.28;100134.25;4933600;28;20035;-61
2023/03/25 00:18:28;;;;;;;0.90;0.20;;;;;;;17.08;45.06;100141.16;4933694;28;20103;-62
2023/03/25 00:20:53;;;;;;;3.22;0.35;;;;;;;17.11;44.70;100134.53;4935151;28;20035;-61
2023/03/25 00:23:20;;;;;;;3.05;0.57;;;;;;;17.09;44.78;100139.28;4918004;28;20038;-61
2023/03/25 00:25:46;;;;;;;2.13;0.60;;;;;;;17.05;43.52;100138.00;4933980;29;20034;-61
2023/03/25 00:28:12;;;;;;;0.90;0.32;;;;;;;17.01;44.49;100148.34;4933347;28;20036;-61
2023/03/25 00:30:38;;;;;;;1.25;0.35;;;;;;;17.00;45.34;100145.84;4901967;28;20052;-61
2023/03/25 00:33:04;;;;;;;4.65;0.60;;;;;;;17.00;44.26;100148.53;4917532;28;20062;-62
2023/03/25 00:35:29;;;;;;;1.25;0.28;;;;;;;16.98;44.61;100151.41;4933336;28;20059;-61
2023/03/25 00:38:01;;;;;;;2.58;0.30;;;;;;;16.98;43.53;100150.56;4933781;29;20024;-61
2023/03/25 00:40:28;;;;;;;2.90;0.55;;;;;;;16.95;44.09;100156.34;4918293;28;20028;-63
2023/03/25 00:42:55;;;;;;;2.80;0.77;;;;;;;16.95;43.85;100134.72;4933489;28;20040;-61
2023/03/25 00:45:20;;;;;;;1.02;0.38;;;;;;;16.93;44.36;100144.88;4933290;28;20419;-61
2023/03/25 00:47:46;;;;;;;0.75;0.32;;;;;;;16.90;44.93;100140.69;4933123;28;20111;-61
2023/03/25 00:50:11;;;;;;;2.20;0.50;;;;;;;16.93;44.25;100144.88;4917620;29;20035;-62
2023/03/25 00:52:37;;;;;;;1.10;0.20;;;;;;;16.89;43.89;100139.84;4933270;28;20111;-61
2023/03/25 00:55:03;;;;;;;1.15;0.22;;;;;;;16.88;45.17;100132.78;4933050;28;20482;-62
2023/03/25 00:57:29;;;;;;;1.38;0.30;;;;;;;16.87;43.98;100141.91;4917435;28;20043;-62
2023/03/25 00:59:55;;;;;;;0.20;0.10;;;;;;;16.84;44.04;100138.72;4949005;28;20028;-62
2023/03/25 01:02:20;;;;;;;1.40;0.30;;;;;;;16.84;43.48;100134.16;4901422;28;20031;-61
2023/03/25 01:04:48;;;;;;;1.85;0.30;;;;;;;16.85;44.47;100140.41;4933252;29;20027;-61
2023/03/25 01:07:17;;;;;;;2.15;0.30;;;;;;;16.83;45.21;100135.19;4948227;28;20044;-62
2023/03/25 01:09:45;;;;;;;0.17;0.17;;;;;;;16.80;43.93;100148.25;4932906;28;20032;-62
2023/03/25 01:12:10;;;;;;;7.50;0.30;;;;;;;16.81;44.49;100137.25;4917393;28;20040;-62
2023/03/25 01:14:36;;;;;;;0.35;0.20;;;;;;;16.78;44.78;100145.72;4933933;28;20414;-61
2023/03/25 01:17:01;;;;;;;1.00;0.45;;;;;;;16.78;44.48;100153.84;4901766;29;20448;-62
2023/03/25 01:19:27;;;;;;;2.65;0.47;;;;;;;16.76;44.24;100145.06;4934096;28;20039;-62
2023/03/25 01:21:53;;;;;;;3.15;0.40;;;;;;;16.71;43.66;100147.50;4932850;28;20510;-62
2023/03/25 01:24:18;;;;;;;1.60;0.38;;;;;;;16.69;45.24;100138.75;4933866;28;20036;-62
2023/03/25 01:26:44;;;;;;;1.10;0.38;;;;;;;16.67;44.01;100126.41;4933990;28;20032;-61
2023/03/25 01:29:11;;;;;;;3.63;0.50;;;;;;;16.65;44.00;100123.91;4933008;29;20024;-62
2023/03/25 01:31:37;;;;;;;2.15;0.30;;;;;;;16.58;44.81;100112.13;4948398;28;20101;-62
2023/03/25 01:34:03;;;;;;;0.20;0.20;;;;;;;16.63;43.79;100131.38;4932490;28;20040;-62
2023/03/25 01:36:28;;;;;;;1.05;0.47;;;;;;;16.60;44.15;100120.91;4932466;28;20040;-62
2023/03/25 01:38:54;;;;;;;1.42;0.55;;;;;;;16.62;44.10;100121.56;4932376;28;20114;-62
2023/03/25 01:41:20;;;;;;;5.15;0.30;;;;;;;16.60;44.54;100118.22;4932607;28;20118;-62
2023/03/25 01:44:06;;;;;;;1.45;0.47;;;;;;;16.58;43.50;100128.34;4932925;29;20031;-61
2023/03/25 01:46:32;;;;;;;2.53;0.40;;;;;;;16.56;45.17;100119.59;4932437;28;20039;-62
2023/03/25 01:48:59;;;;;;;1.50;0.52;;;;;;;16.55;44.62;100117.94;4932392;28;20177;-62
2023/03/25 01:51:28;;;;;;;1.58;0.10;;;;;;;16.52;44.28;100110.16;4916484;28;20047;-61
2023/03/25 01:53:54;;;;;;;2.00;0.40;;;;;;;16.47;43.93;100115.25;4916539;28;20036;-61
2023/03/25 01:56:24;;;;;;;1.50;0.30;;;;;;;16.45;44.19;100117.31;4916454;28;20442;-61
2023/03/25 01:58:50;;;;;;;2.22;0.30;;;;;;;16.43;43.68;100111.25;4932654;29;20395;-62
2023/03/25 02:01:20;;;;;;;2.22;0.45;;;;;;;16.42;45.10;100109.56;4932760;28;20495;-62
2023/03/25 02:03:49;;;;;;;1.65;0.70;;;;;;;16.42;43.78;100120.38;4916595;28;20519;-61
2023/03/25 02:06:30;;;;;;;2.45;0.28;;;;;;;16.41;44.29;100113.31;4916500;28;20506;-61
2023/03/25 02:08:57;;;;;;;1.55;0.28;;;;;;;16.43;44.82;100113.97;4916501;28;20447;-62
2023/03/25 02:11:27;;;;;;;1.13;0.40;;;;;;;16.39;44.34;100112.63;4916141;28;20399;-61
2023/03/25 02:13:54;;;;;;;0.70;0.28;;;;;;;16.42;44.53;100106.88;4934544;29;20046;-61
2023/03/25 02:16:57;;;;;;;1.08;0.40;;;;;;;16.39;44.13;100111.81;4933088;28;20522;-62
2023/03/25 02:19:41;;;;;;;4.80;0.65;;;;;;;16.34;44.91;100098.84;4931593;28;20067;-62
2023/03/25 02:22:25;;;;;;;6.13;0.35;;;;;;;16.30;44.16;100111.06;4933127;28;20032;-62
2023/03/25 02:25:11;;;;;;;1.60;0.82;;;;;;;16.25;44.43;100108.03;4931800;28;20043;-62
2023/03/25 02:27:44;;;;;;;1.42;0.47;;;;;;;16.24;45.17;100114.50;4933136;28;20649;-62
2023/03/25 02:30:14;;;;;;;2.83;0.50;;;;;;;16.24;45.41;100117.19;4916047;28;20044;-62
2023/03/25 02:33:17;;;;;;;4.53;0.65;;;;;;;16.24;45.50;100118.03;4931512;28;20127;-61
2023/03/25 02:36:01;;;;;;;1.20;0.32;;;;;;;16.23;45.68;100112.81;4932997;28;20040;-62
2023/03/25 02:38:35;;;;;;;3.28;1.20;;;;;;;16.21;44.49;100113.00;4931584;28;20024;-62
2023/03/25 02:41:24;;;;;;;11.18;1.27;;;;;;;16.20;44.06;100105.06;4931972;29;20032;-62
2023/03/25 02:44:02;;;;;;;2.83;0.75;;;;;;;16.21;45.40;100123.81;4931633;29;20500;-61
2023/03/25 02:46:29;;;;;;;4.25;0.80;;;;;;;16.19;44.62;100108.81;4915914;28;20130;-62
2023/03/25 02:48:57;;;;;;;3.67;0.25;;;;;;;16.23;44.70;100120.91;4931693;28;20039;-62
2023/03/25 02:51:35;;;;;;;4.68;0.70;;;;;;;16.26;44.61;100121.41;4932685;28;20040;-62
2023/03/25 02:54:10;;;;;;;1.17;0.40;;;;;;;16.22;44.74;100114.66;4931347;28;20505;-62
2023/03/25 02:56:36;;;;;;;5.43;0.80;;;;;;;16.17;45.84;100116.22;4931510;28;20036;-62
2023/03/25 02:59:03;;;;;;;1.10;0.50;;;;;;;16.11;45.33;100103.44;4947876;29;20027;-62
2023/03/25 03:01:29;;;;;;;3.60;0.45;;;;;;;16.11;45.92;100106.16;4931488;28;20032;-62
2023/03/25 03:03:55;;;;;;;2.35;0.60;;;;;;;16.08;45.47;100106.53;4931414;28;20047;-61
2023/03/25 03:06:22;;;;;;;4.05;0.60;;;;;;;16.09;44.64;100108.19;4932718;28;20038;-62
2023/03/25 03:08:50;;;;;;;4.18;0.63;;;;;;;16.13;44.40;100109.53;4915486;28;20052;-61
2023/03/25 03:11:26;;;;;;;1.52;0.30;;;;;;;16.14;45.61;100103.09;4932565;28;20099;-62
2023/03/25 03:14:20;;;;;;;2.83;0.82;;;;;;;16.16;44.87;100098.34;4932791;29;20032;-62
2023/03/25 03:16:59;;;;;;;4.45;0.55;;;;;;;16.14;45.58;100103.09;4932493;29;20047;-62
2023/03/25 03:19:27;;;;;;;4.72;0.70;;;;;;;16.16;45.12;100104.56;4931433;28;20131;-61
2023/03/25 03:22:13;;;;;;;3.45;0.60;;;;;;;16.17;45.07;100102.72;4932336;28;20408;-62
2023/03/25 03:24:42;;;;;;;4.13;0.77;;;;;;;16.16;45.50;100109.16;4931100;28;20071;-62
2023/03/25 03:27:26;;;;;;;1.63;0.60;;;;;;;16.17;45.59;100100.03;4931145;28;20035;-62
2023/03/25 03:29:56;;;;;;;3.13;0.52;;;;;;;16.19;45.63;100101.50;4916936;28;20027;-61
2023/03/25 03:32:28;;;;;;;4.38;0.50;;;;;;;16.19;44.72;100104.22;4918171;28;20584;-62
2023/03/25 03:35:00;;;;;;;4.18;0.55;;;;;;;16.22;44.76;100103.00;4934949;29;20126;-62
2023/03/25 03:37:35;;;;;;;2.00;0.60;;;;;;;16.23;44.39;100093.88;4950228;28;20036;-62
2023/03/25 03:40:02;;;;;;;3.70;0.60;;;;;;;16.26;44.63;100104.34;4934217;28;20031;-62
2023/03/25 03:42:41;;;;;;;3.22;0.63;;;;;;;16.22;44.95;100108.41;4918429;28;20043;-61
2023/03/25 03:45:10;;;;;;;4.70;0.50;;;;;;;16.21;44.86;100107.59;4933941;28;20035;-63
2023/03/25 03:47:40;;;;;;;0.98;0.32;;;;;;;16.24;44.70;100117.19;4950184;28;20031;-62
2023/03/25 03:50:13;;;;;;;1.88;0.40;;;;;;;16.24;44.23;100117.19;4918807;29;20027;-61
2023/03/25 03:52:46;;;;;;;3.08;0.68;;;;;;;16.25;45.67;100113.44;4918531;28;20043;-62
2023/03/25 03:55:14;;;;;;;5.05;0.80;;;;;;;16.28;45.73;100113.09;4933839;28;20403;-62
2023/03/25 03:57:46;;;;;;;2.28;0.50;;;;;;;16.28;44.65;100105.81;4918341;28;20510;-62
2023/03/25 04:00:17;;;;;;;2.17;0.80;;;;;;;16.29;45.43;100109.38;4933729;28;20036;-62
2023/03/25 04:02:49;;;;;;;1.70;0.40;;;;;;;16.29;45.41;100114.78;4933960;28;20545;-62
2023/03/25 04:05:17;;;;;;;0.50;0.50;;;;;;;16.28;44.96;100111.22;4933720;28;20031;-62
2023/03/25 04:07:58;;;;;;;1.42;1.20;;;;;;;16.30;44.53;100111.06;4918826;29;20035;-61
2023/03/25 04:10:40;;;;;;;1.92;0.93;;;;;;;16.31;44.98;100107.31;4902604;28;20043;-62
2023/03/25 04:13:09;;;;;;;3.08;0.45;;;;;;;16.32;44.25;100103.59;4917855;28;20035;-61
2023/03/25 04:15:35;;;;;;;1.15;0.55;;;;;;;16.30;44.28;100101.06;4917894;28;20496;-62
2023/03/25 04:18:02;;;;;;;3.58;0.57;;;;;;;16.33;44.23;100105.28;4933559;28;20032;-62
2023/03/25 04:20:32;;;;;;;5.10;0.60;;;;;;;16.34;45.10;100117.75;4933949;28;20481;-63
2023/03/25 04:22:58;;;;;;;1.33;0.57;;;;;;;16.36;45.14;100110.31;4934056;29;20376;-62
2023/03/25 04:25:24;;;;;;;6.90;0.93;;;;;;;16.37;44.66;100116.56;4933734;28;20557;-62
2023/03/25 04:27:52;;;;;;;2.97;0.30;;;;;;;16.37;43.80;100116.56;4933166;28;20036;-61
2023/03/25 04:30:18;;;;;;;4.53;0.60;;;;;;;16.39;45.06;100123.44;4933417;28;20499;-62
2023/03/25 04:32:45;;;;;;;2.85;0.50;;;;;;;16.39;44.80;100128.03;4933498;28;20085;-62
2023/03/25 04:35:15;;;;;;;2.58;0.40;;;;;;;16.34;44.87;100106.94;4918077;29;20039;-62
2023/03/25 04:37:44;;;;;;;5.68;0.70;;;;;;;16.33;44.46;100114.22;4933596;29;20089;-62
2023/03/25 04:40:15;;;;;;;6.03;0.70;;;;;;;16.35;44.83;100124.84;4933514;28;20107;-62
2023/03/25 04:42:41;;;;;;;3.60;0.50;;;;;;;16.37;44.53;100112.00;4932915;28;20036;-62
2023/03/25 04:45:07;;;;;;;3.85;0.75;;;;;;;16.33;44.44;100122.31;4917898;28;20048;-61
2023/03/25 04:47:33;;;;;;;4.15;0.75;;;;;;;16.35;44.18;100119.47;4933241;28;20032;-62
2023/03/25 04:49:58;;;;;;;4.57;0.93;;;;;;;16.33;44.94;100108.00;4917833;29;20161;-61
2023/03/25 04:52:24;;;;;;;6.90;1.08;;;;;;;16.33;44.13;100112.56;4917220;28;20032;-61
2023/03/25 04:54:50;;;;;;;7.50;1.05;;;;;;;16.32;43.82;100106.31;4933272;28;20105;-62
2023/03/25 04:57:15;;;;;;;6.55;0.75;;;;;;;16.33;43.96;100124.22;4934241;28;20411;-61
2023/03/25 04:59:41;;;;;;;1.65;0.63;;;;;;;16.33;44.21;100110.69;4917244;28;20376;-61
2023/03/25 05:02:11;;;;;;;1.60;0.68;;;;;;;16.33;44.96;100114.22;4917578;29;20024;-61
2023/03/25 05:04:40;;;;;;;4.70;0.70;;;;;;;16.35;45.23;100114.06;4917684;28;20456;-62
2023/03/25 05:07:06;;;;;;;8.02;0.80;;;;;;;16.38;44.57;100108.28;4917665;28;20044;-62
2023/03/25 05:09:31;;;;;;;4.30;0.90;;;;;;;16.40;44.41;100106.22;4948848;28;20047;-62
2023/03/25 05:11:57;;;;;;;3.97;1.10;;;;;;;16.37;44.26;100117.41;4917176;28;20044;-62
2023/03/25 05:14:22;;;;;;;11.75;0.98;;;;;;;16.38;44.51;100110.97;4916883;28;20055;-62
2023/03/25 05:16:48;;;;;;;4.25;0.88;;;;;;;16.39;44.26;100109.94;4934323;29;20028;-61
2023/03/25 05:19:14;;;;;;;2.22;0.73;;;;;;;16.39;44.50;100114.53;4916979;28;20038;-62
2023/03/25 05:21:40;;;;;;;2.90;0.70;;;;;;;16.41;43.77;100112.47;4932826;28;20495;-62
2023/03/25 05:24:09;;;;;;;3.03;0.90;;;;;;;16.38;44.20;100113.69;4932681;28;20035;-62
2023/03/25 05:26:35;;;;;;;7.88;0.70;;;;;;;16.38;45.38;100118.25;4932736;28;20050;-61
2023/03/25 05:29:05;;;;;;;5.35;1.02;;;;;;;16.36;45.29;100123.81;4917182;29;20054;-62
2023/03/25 05:31:30;;;;;;;7.32;0.88;;;;;;;16.32;45.14;100119.81;4932405;28;20062;-62
2023/03/25 05:33:56;;;;;;;5.53;0.80;;;;;;;16.26;45.29;100125.94;4932712;28;20036;-62
2023/03/25 05:36:23;;;;;;;3.92;0.98;;;;;;;16.22;44.99;100130.03;4932510;28;20458;-61
2023/03/25 05:38:50;;;;;;;10.48;1.33;;;;;;;16.18;45.51;100131.44;4932459;28;20466;-62
2023/03/25 05:41:15;;;;;;;8.15;0.73;;;;;;;16.15;45.71;100129.94;4932539;28;20035;-62
2023/03/25 05:43:45;;;;;;;4.03;0.85;;;;;;;16.14;44.88;100128.25;4932875;29;20027;-62
2023/03/25 05:46:11;;;;;;;1.60;0.60;;;;;;;16.17;45.97;100135.16;4932613;28;20114;-62
2023/03/25 05:48:40;;;;;;;5.35;0.80;;;;;;;16.18;45.26;100134.13;4916477;28;20123;-62
2023/03/25 05:51:12;;;;;;;2.97;0.57;;;;;;;16.18;45.35;100134.97;4932404;28;20043;-61
2023/03/25 05:53:38;;;;;;;10.50;1.17;;;;;;;16.20;45.65;100137.50;4932284;28;20035;-62
2023/03/25 05:56:04;;;;;;;4.60;0.93;;;;;;;16.19;45.95;100141.22;4916807;29;20074;-61
2023/03/25 05:58:31;;;;;;;7.88;0.90;;;;;;;16.18;45.58;100142.25;4932657;28;20450;-62
2023/03/25 06:00:58;;;;;;;3.47;0.60;;;;;;;16.18;45.62;100142.25;4932537;28;20047;-61
2023/03/25 06:03:24;;;;;;;5.00;1.20;;;;;;;16.17;44.72;100136.00;4932574;28;20036;-62
2023/03/25 06:05:52;;;;;;;1.55;0.77;;;;;;;16.17;45.57;100143.25;4932158;28;20035;-62
2023/03/25 06:08:18;;;;;;;7.72;1.45;;;;;;;16.18;45.52;100145.78;4947795;28;20027;-62
2023/03/25 06:10:44;;;;;;;4.28;0.73;;;;;;;16.19;46.05;100169.06;4932475;29;20542;-62
2023/03/25 06:13:10;;;;;;;4.82;0.70;;;;;;;16.20;44.90;100153.69;4931993;28;20042;-62
2023/03/25 06:15:39;;;;;;;6.60;0.73;;;;;;;16.22;46.16;100159.75;4931943;28;20419;-62
2023/03/25 06:18:04;;;;;;;1.98;0.77;;;;;;;16.21;45.41;100150.00;4933358;28;20031;-62
2023/03/25 06:20:30;;;;;;;3.65;1.00;;;;;;;16.24;44.55;100150.47;4933045;28;20027;-62
2023/03/25 06:22:56;;;;;;;5.40;0.70;;;;;;;16.26;45.98;100152.97;4933466;29;20038;-62
2023/03/25 06:25:22;;;;;;;5.57;0.77;;;;;;;16.28;44.52;100151.78;4931986;28;20215;-62
2023/03/25 06:27:49;;;;;;;7.03;0.80;;;;;;;16.30;44.38;100154.31;4932005;28;20039;-62
2023/03/25 06:30:17;;;;;;;5.40;1.00;;;;;;;16.30;44.57;100157.00;4931711;28;20407;-62
2023/03/25 06:32:43;;;;;;;5.50;1.05;;;;;;;16.37;44.44;100159.81;4931977;28;20111;-61
2023/03/25 06:35:09;;;;;;;4.85;1.00;;;;;;;16.40;44.24;100160.28;4933606;29;20508;-62
2023/03/25 06:37:36;;;;;;;5.30;1.08;;;;;;;16.44;44.98;100161.63;4934579;28;20118;-62
2023/03/25 06:40:04;;;;;;;9.00;0.95;;;;;;;16.50;45.56;100166.25;4933334;28;20042;-62
2023/03/25 06:42:29;;;;;;;4.50;0.77;;;;;;;16.54;44.98;100164.06;4933266;28;20055;-62
2023/03/25 06:44:55;;;;;;;3.08;0.95;;;;;;;16.58;45.35;100168.09;4916053;28;20424;-62
2023/03/25 06:47:21;;;;;;;3.80;1.00;;;;;;;16.57;45.48;100166.41;4932186;28;20483;-63
2023/03/25 06:49:46;;;;;;;5.03;1.27;;;;;;;16.55;44.51;100174.72;4932341;29;20388;-62
2023/03/25 06:52:12;;;;;;;5.50;0.60;;;;;;;16.56;44.48;100160.16;4931866;28;20499;-61
2023/03/25 06:54:38;;;;;;;3.60;0.68;;;;;;;16.54;44.76;100156.81;4915992;28;20086;-62
2023/03/25 06:57:04;;;;;;;4.25;1.00;;;;;;;16.53;45.65;100163.22;4931928;28;20040;-62
2023/03/25 06:59:29;;;;;;;4.75;1.95;;;;;;;16.54;44.20;100172.19;4915854;28;20074;-63
2023/03/25 07:01:55;;;;;;;8.90;1.20;;;;;;;16.53;44.52;100174.03;4916075;29;20035;-62
2023/03/25 07:04:21;;;;;;;8.43;0.70;;;;;;;16.52;45.52;100174.22;4900652;28;20032;-62
2023/03/25 07:06:46;;;;;;;6.05;1.15;;;;;;;16.50;45.00;100166.25;4934806;28;20392;-62
2023/03/25 07:09:11;;;;;;;13.75;1.00;;;;;;;16.53;45.05;100167.75;4934725;28;20055;-62
2023/03/25 07:11:37;;;;;;;7.60;0.63;;;;;;;16.63;44.38;100176.50;4934869;28;20443;-62
2023/03/25 07:14:02;;;;;;;1.90;0.63;;;;;;;16.93;44.31;100167.38;4919411;29;20039;-62
2023/03/25 07:16:28;;;;;;;5.38;0.70;;;;;;;17.27;43.53;100166.81;4934900;28;20484;-62
2023/03/25 07:18:55;;;;;;;5.40;0.95;;;;;;;17.43;43.39;100161.19;4935301;28;20051;-62
2023/03/25 07:21:21;;;;;;;7.03;1.27;;;;;;;17.76;44.15;100165.13;4934761;28;20111;-63
2023/03/25 07:23:46;;;;;;;4.47;0.75;;;;;;;17.84;44.09;100175.84;4934989;28;20039;-62
2023/03/25 07:26:12;;;;;;;2.97;0.85;;;;;;;18.02;43.38;100175.41;4919353;29;20031;-62
2023/03/25 07:28:39;;;;;;;5.82;1.65;;;;;;;17.93;43.88;100176.56;4934626;28;20050;-62
2023/03/25 07:31:07;;;;;;;9.23;1.42;;;;;;;17.84;43.55;100173.13;4918684;28;20052;-63
2023/03/25 07:33:32;;;;;;;8.52;1.75;;;;;;;17.80;43.97;100171.03;4934970;28;20039;-62
2023/03/25 07:35:57;;;;;;;10.30;1.02;;;;;;;17.78;43.94;100183.94;4936223;28;20046;-62
2023/03/25 07:38:23;;;;;;;7.03;1.08;;;;;;;17.78;43.47;100179.31;4935748;28;20417;-62
2023/03/25 07:40:48;;;;;;;3.65;0.90;;;;;;;17.75;43.37;100178.88;4936423;28;20119;-61
2023/03/25 07:43:14;;;;;;;7.53;1.05;;;;;;;17.74;43.57;100183.47;4918706;28;20495;-63
2023/03/25 07:45:40;;;;;;;9.13;0.98;;;;;;;17.75;44.19;100185.16;4934822;28;20169;-62
2023/03/25 07:48:06;;;;;;;4.93;1.00;;;;;;;17.86;43.78;100186.50;4918823;28;20028;-62
2023/03/25 07:50:32;;;;;;;4.68;0.82;;;;;;;17.84;43.98;100178.56;4935824;28;20024;-62
2023/03/25 07:52:57;;;;;;;4.30;0.85;;;;;;;17.91;44.04;100190.31;4903162;29;20028;-62
2023/03/25 07:55:23;;;;;;;4.00;1.92;;;;;;;18.02;43.89;100203.38;4919028;28;20054;-61
2023/03/25 07:57:48;;;;;;;9.02;0.90;;;;;;;18.03;43.18;100202.31;4934413;28;20032;-62
2023/03/25 08:00:14;;;;;;;9.50;1.77;;;;;;;18.04;43.53;100195.88;4933968;28;20040;-62
2023/03/25 08:02:40;;;;;;;4.07;1.25;;;;;;;18.04;43.42;100205.88;4949887;28;20031;-62
2023/03/25 08:05:06;;;;;;;6.07;1.27;;;;;;;18.04;43.25;100212.13;4934340;29;20140;-61
2023/03/25 08:07:32;;;;;;;7.38;1.30;;;;;;;18.02;43.95;100208.78;4933970;29;20098;-62
2023/03/25 08:09:57;;;;;;;6.85;1.20;;;;;;;17.98;43.90;100212.91;4918203;28;20034;-62
2023/03/25 08:12:23;;;;;;;10.80;1.35;;;;;;;17.92;42.94;100202.00;4934098;28;20525;-62
2023/03/25 08:14:48;;;;;;;4.53;1.30;;;;;;;17.86;43.41;100211.75;4918367;28;20036;-62
2023/03/25 08:17:14;;;;;;;8.73;1.60;;;;;;;17.88;44.06;100209.69;4934729;29;20043;-62
2023/03/25 08:19:40;;;;;;;4.30;1.00;;;;;;;18.00;42.64;100216.28;4918261;29;20063;-62
2023/03/25 08:22:05;;;;;;;9.32;1.27;;;;;;;18.13;42.68;100221.00;4950166;28;20071;-61
2023/03/25 08:24:31;;;;;;;5.47;1.30;;;;;;;18.27;42.53;100222.81;4902743;28;20522;-62
2023/03/25 08:26:59;;;;;;;10.35;0.95;;;;;;;18.28;43.03;100216.34;4935023;28;20109;-62
2023/03/25 08:29:26;;;;;;;6.15;1.00;;;;;;;18.35;43.19;100221.81;4933583;28;20027;-61
2023/03/25 08:31:51;;;;;;;5.72;1.33;;;;;;;18.43;42.29;100217.09;4933930;28;20059;-61
2023/03/25 08:34:19;;;;;;;7.68;1.52;;;;;;;18.53;42.38;100231.22;4951373;28;20027;-61
2023/03/25 08:36:44;;;;;;;11.05;1.17;;;;;;;18.50;42.71;100228.06;4935365;29;20503;-61
2023/03/25 08:39:11;;;;;;;4.55;1.17;;;;;;;18.57;42.59;100218.94;4935127;29;20036;-62
2023/03/25 08:41:37;;;;;;;6.47;0.80;;;;;;;18.50;42.85;100222.63;4935779;28;20539;-61
2023/03/25 08:44:04;;;;;;;7.32;1.25;;;;;;;18.46;42.55;100226.72;4937405;29;20043;-62
2023/03/25 08:46:31;;;;;;;13.02;1.42;;;;;;;18.42;42.42;100226.31;4920530;28;20099;-62
2023/03/25 08:48:56;;;;;;;4.25;1.23;;;;;;;18.41;42.69;100234.63;4918142;28;20525;-62
2023/03/25 08:51:21;;;;;;;6.38;1.25;;;;;;;18.46;42.64;100233.00;4949599;28;20055;-61
2023/03/25 08:53:47;;;;;;;5.35;0.95;;;;;;;18.59;42.38;100229.63;4934536;28;20046;-62
2023/03/25 08:56:13;;;;;;;3.08;1.38;;;;;;;18.55;42.04;100226.44;4935843;28;20036;-62
2023/03/25 08:58:38;;;;;;;4.35;1.20;;;;;;;18.89;42.00;100222.13;4937079;28;20059;-62
2023/03/25 09:01:05;;;;;;;7.90;1.00;;;;;;;19.15;41.61;100223.13;4935698;29;20051;-62
2023/03/25 09:03:31;;;;;;;3.08;0.90;;;;;;;19.09;41.91;100223.94;4902430;28;20511;-61
2023/03/25 09:05:56;;;;;;;11.05;1.55;;;;;;;19.03;41.70;100227.44;4934425;28;20035;-62
2023/03/25 09:08:22;;;;;;;5.15;1.10;;;;;;;18.95;41.88;100252.03;4933634;28;20486;-62
2023/03/25 09:10:47;;;;;;;6.28;1.63;;;;;;;19.00;42.05;100246.84;4949463;28;20499;-61
2023/03/25 09:13:13;;;;;;;6.32;1.25;;;;;;;18.90;41.97;100232.75;4934205;28;20043;-62
2023/03/25 09:15:38;;;;;;;8.35;1.00;;;;;;;18.88;41.33;100234.84;4933087;28;20422;-62
2023/03/25 09:18:04;;;;;;;10.30;2.17;;;;;;;18.85;42.00;100243.38;4932864;28;20036;-62
2023/03/25 09:20:30;;;;;;;3.92;1.00;;;;;;;18.85;42.21;100231.69;4933948;28;20030;-62
2023/03/25 09:22:56;;;;;;;10.07;1.38;;;;;;;18.83;42.41;100240.03;4917778;28;20483;-62
2023/03/25 09:25:22;;;;;;;7.82;2.00;;;;;;;18.86;41.54;100250.50;4932654;28;20046;-62
2023/03/25 09:27:47;;;;;;;8.27;1.08;;;;;;;18.94;41.94;100242.19;4933540;28;20047;-62
2023/03/25 09:30:14;;;;;;;7.97;1.10;;;;;;;19.01;41.37;100248.50;4918951;28;20044;-62
2023/03/25 09:32:40;;;;;;;7.20;1.00;;;;;;;18.95;41.60;100243.88;4933797;28;20063;-62
2023/03/25 09:35:05;;;;;;;7.90;1.63;;;;;;;19.06;41.64;100240.63;4948732;29;20078;-62
2023/03/25 09:37:31;;;;;;;6.22;1.65;;;;;;;19.48;40.93;100260.56;4932412;28;20038;-62
2023/03/25 09:39:56;;;;;;;7.57;1.20;;;;;;;19.66;40.50;100244.53;4933215;28;20073;-62
2023/03/25 09:42:36;;;;;;;6.05;1.58;;;;;;;19.62;40.18;100240.56;4933705;28;20124;-62
2023/03/25 09:45:16;;;;;;;4.68;1.35;;;;;;;19.79;40.90;100243.78;4916505;28;20495;-63
2023/03/25 09:47:57;;;;;;;11.10;1.40;;;;;;;19.80;40.78;100238.13;4916638;28;20027;-62
2023/03/25 09:50:24;;;;;;;7.95;1.40;;;;;;;19.71;40.64;100236.59;4932421;28;20050;-62
2023/03/25 09:52:55;;;;;;;13.32;1.73;;;;;;;19.63;41.01;100250.38;4916977;28;20107;-62
2023/03/25 09:55:28;;;;;;;6.20;1.33;;;;;;;19.57;40.65;100259.34;4917028;28;20036;-62
2023/03/25 09:57:59;;;;;;;13.45;1.35;;;;;;;19.58;40.73;100255.56;4916477;29;20062;-62
2023/03/25 10:00:25;;;;;;;9.65;1.95;;;;;;;19.56;40.98;100252.22;4932217;28;20113;-62
2023/03/25 10:03:18;;;;;;;8.48;1.27;;;;;;;19.61;40.78;100255.19;4916542;28;20074;-62
2023/03/25 10:05:57;;;;;;;9.20;1.23;;;;;;;19.59;41.05;100249.97;4933266;28;20036;-62
2023/03/25 10:08:33;;;;;;;11.73;1.33;;;;;;;19.48;40.92;100257.84;4900610;28;20059;-62
2023/03/25 10:11:12;;;;;;;6.43;1.10;;;;;;;19.49;40.76;100254.06;4933813;29;20535;-62
2023/03/25 10:13:55;;;;;;;3.08;0.90;;;;;;;19.67;40.71;100243.50;4931936;28;20040;-62
2023/03/25 10:16:36;;;;;;;6.25;1.27;;;;;;;20.54;39.27;100251.72;4931903;29;20036;-63
2023/03/25 10:19:34;;;;;;;5.75;1.23;;;;;;;21.44;38.85;100250.00;4933261;28;20032;-62
2023/03/25 10:22:08;;;;;;;6.32;1.30;;;;;;;21.24;38.89;100260.13;4933111;28;20040;-62
2023/03/25 10:24:41;;;;;;;6.97;1.42;;;;;;;22.56;36.82;100244.84;4916004;28;20157;-62
2023/03/25 10:27:10;;;;;;;9.45;1.17;;;;;;;22.16;37.70;100231.69;4931704;28;20067;-62
2023/03/25 10:30:02;;;;;;;7.53;1.35;;;;;;;21.87;38.50;100265.84;4933049;28;20035;-62
2023/03/25 10:32:35;;;;;;;6.30;1.15;;;;;;;21.82;38.81;100269.19;4931351;28;20097;-62
2023/03/25 10:35:02;;;;;;;5.88;1.23;;;;;;;22.25;37.97;100272.13;4932170;29;20026;-62
2023/03/25 10:37:31;;;;;;;7.97;1.17;;;;;;;23.50;36.55;100261.09;4915760;29;20119;-63
2023/03/25 10:40:22;;;;;;;3.28;1.48;;;;;;;24.20;36.10;100270.53;4930714;28;20059;-63
2023/03/25 10:43:10;;;;;;;5.07;1.00;;;;;;;24.43;35.61;100266.25;4931446;28;20039;-63
2023/03/25 10:45:37;;;;;;;4.70;1.20;;;;;;;25.31;35.18;100261.66;4931494;28;20040;-63
2023/03/25 10:48:16;;;;;;;3.80;1.13;;;;;;;25.92;34.29;100280.31;4915705;28;20039;-63
2023/03/25 10:50:42;;;;;;;5.45;1.67;;;;;;;25.41;35.16;100270.94;4931662;28;20036;-63
2023/03/25 10:53:20;;;;;;;9.55;2.20;;;;;;;24.58;36.56;100294.88;4916094;28;20035;-62
2023/03/25 10:55:51;;;;;;;6.35;1.63;;;;;;;23.96;37.07;100296.09;4931593;29;20038;-63
2023/03/25 10:58:18;;;;;;;4.60;1.30;;;;;;;23.46;36.99;100291.84;4931781;28;20137;-63
2023/03/25 11:00:43;;;;;;;8.00;1.95;;;;;;;22.96;37.85;100296.47;4915592;28;20111;-62
2023/03/25 11:03:16;;;;;;;7.65;1.77;;;;;;;22.48;38.57;100279.78;4931787;28;20638;-62
2023/03/25 11:05:42;;;;;;;4.20;1.05;;;;;;;22.15;38.59;100290.88;4931517;28;20137;-62
2023/03/25 11:08:08;;;;;;;3.63;1.50;;;;;;;21.73;38.58;100281.38;4915995;28;20471;-63
2023/03/25 11:10:34;;;;;;;11.23;1.55;;;;;;;21.38;39.53;100299.91;4915531;28;20044;-62
2023/03/25 11:13:02;;;;;;;9.48;2.45;;;;;;;21.05;39.37;100299.06;4915498;28;20039;-62
2023/03/25 11:15:39;;;;;;;7.90;1.60;;;;;;;20.75;39.86;100295.09;4932636;28;20097;-62
2023/03/25 11:18:43;;;;;;;9.13;1.85;;;;;;;20.46;40.00;100312.66;4931305;28;20028;-62
2023/03/25 11:21:13;;;;;;;6.40;1.88;;;;;;;20.14;40.96;100311.47;4968544;28;20035;-62
2023/03/25 11:23:43;;;;;;;5.68;1.45;;;;;;;19.87;40.43;100319.72;4952487;28;20035;-62
2023/03/25 11:26:18;;;;;;;5.20;1.25;;;;;;;19.71;41.01;100320.84;4952996;28;20172;-62
2023/03/25 11:28:45;;;;;;;4.35;1.80;;;;;;;19.73;40.67;100330.53;4968629;28;20557;-62
2023/03/25 11:31:10;;;;;;;4.30;1.50;;;;;;;19.82;40.60;100317.56;4936398;28;20572;-62
2023/03/25 11:33:36;;;;;;;8.52;1.42;;;;;;;20.46;40.15;100292.75;4968757;28;20126;-62